sensor_id;sensor_type;location;lat;lon;timestamp;P1;durP1;ratioP1;P2;durP2;ratioP2
23594;SDS011;11975;47.674;9.472;2023-05-21T00:01:46;1999.90;;;999.90;;
23594;SDS011;11975;47.674;9.472;2023-05-21T00:04:12;1999.90;;;999.90;;
23594;SDS011;11975;47.674;9.472;2023-05-21T00:09:05;1999.90;;;999.90;;
23594;SDS011;11975;47.674;9.472;2023-05-21T00:11:32;1999.90;;;999.90;;
23594;SDS011;11975;47.674;9.472;2023-05-21T00:13:58;1999.90;;;999.90;;
23594;SDS011;11975;47.674;9.472;2023-05-21T00:16:24;1999.90;;;999.90;;
23594;SDS011;11975;47.674;9.472;2023-05-21T00:18:50;1999.90;;;999.90;;
23594;SDS011;11975;47.674;9.472;2023-05-21T00:21:18;1999.90;;;999.90;;
23594;SDS011;11975;47.674;9.472;2023-05-21T00:23:51;1999.90;;;999.90;;
23594;SDS011;11975;47.674;9.472;2023-05-21T00:26:21;1999.90;;;999.90;;
23594;SDS011;11975;47.674;9.472;2023-05-21T00:28:49;1999.90;;;999.90;;
23594;SDS011;11975;47.674;9.472;2023-05-21T00:31:15;1999.90;;;999.90;;
23594;SDS011;11975;47.674;9.472;2023-05-21T00:33:41;1999.90;;;999.90;;
23594;SDS011;11975;47.674;9.472;2023-05-21T00:36:07;1999.90;;;999.90;;
23594;SDS011;11975;47.674;9.472;2023-05-21T00:38:33;1999.90;;;999.90;;
23594;SDS011;11975;47.674;9.472;2023-05-21T00:41:02;1999.90;;;999.90;;
23594;SDS011;11975;47.674;9.472;2023-05-21T00:43:28;1999.90;;;999.90;;
23594;SDS011;11975;47.674;9.472;2023-05-21T00:45:54;1999.90;;;999.90;;
23594;SDS011;11975;47.674;9.472;2023-05-21T00:48:21;1999.90;;;999.90;;
23594;SDS011;11975;47.674;9.472;2023-05-21T00:50:47;1999.90;;;999.90;;
23594;SDS011;11975;47.674;9.472;2023-05-21T00:53:15;1999.90;;;999.90;;
23594;SDS011;11975;47.674;9.472;2023-05-21T00:55:44;1999.90;;;999.90;;
23594;SDS011;11975;47.674;9.472;2023-05-21T00:58:10;1999.90;;;999.90;;
23594;SDS011;11975;47.674;9.472;2023-05-21T01:00:37;1999.90;;;999.90;;
23594;SDS011;11975;47.674;9.472;2023-05-21T01:03:05;1999.90;;;999.90;;
23594;SDS011;11975;47.674;9.472;2023-05-21T01:05:31;1999.90;;;999.90;;
23594;SDS011;11975;47.674;9.472;2023-05-21T01:07:57;1999.90;;;999.90;;
23594;SDS011;11975;47.674;9.472;2023-05-21T01:10:24;1999.90;;;999.90;;
23594;SDS011;11975;47.674;9.472;2023-05-21T01:12:51;1999.90;;;999.90;;
23594;SDS011;11975;47.674;9.472;2023-05-21T01:15:17;1999.90;;;999.90;;
23594;SDS011;11975;47.674;9.472;2023-05-21T01:17:43;1999.90;;;999.90;;
23594;SDS011;11975;47.674;9.472;2023-05-21T01:20:14;1999.90;;;999.90;;
23594;SDS011;11975;47.674;9.472;2023-05-21T01:22:54;1999.90;;;999.90;;
23594;SDS011;11975;47.674;9.472;2023-05-21T01:25:24;1999.90;;;999.90;;
23594;SDS011;11975;47.674;9.472;2023-05-21T01:27:50;1999.90;;;999.90;;
23594;SDS011;11975;47.674;9.472;2023-05-21T01:30:17;1999.90;;;999.90;;
23594;SDS011;11975;47.674;9.472;2023-05-21T01:32:57;1999.90;;;999.90;;
23594;SDS011;11975;47.674;9.472;2023-05-21T01:35:29;1999.90;;;999.90;;
23594;SDS011;11975;47.674;9.472;2023-05-21T01:40:52;1999.90;;;999.90;;
23594;SDS011;11975;47.674;9.472;2023-05-21T01:43:19;1999.90;;;999.90;;
23594;SDS011;11975;47.674;9.472;2023-05-21T01:45:47;1999.90;;;999.90;;
23594;SDS011;11975;47.674;9.472;2023-05-21T01:48:15;1999.90;;;999.90;;
23594;SDS011;11975;47.674;9.472;2023-05-21T01:50:42;1999.90;;;999.90;;
23594;SDS011;11975;47.674;9.472;2023-05-21T01:53:09;1999.90;;;999.90;;
23594;SDS011;11975;47.674;9.472;2023-05-21T01:55:35;1999.90;;;999.90;;
23594;SDS011;11975;47.674;9.472;2023-05-21T01:58:06;1999.90;;;999.90;;
23594;SDS011;11975;47.674;9.472;2023-05-21T02:00:32;1999.90;;;999.90;;
23594;SDS011;11975;47.674;9.472;2023-05-21T02:02:59;1999.90;;;999.90;;
23594;SDS011;11975;47.674;9.472;2023-05-21T02:05:25;1999.90;;;999.90;;
23594;SDS011;11975;47.674;9.472;2023-05-21T02:07:51;1999.90;;;999.90;;
23594;SDS011;11975;47.674;9.472;2023-05-21T02:10:17;1999.90;;;999.90;;
23594;SDS011;11975;47.674;9.472;2023-05-21T02:12:43;1999.90;;;999.90;;
23594;SDS011;11975;47.674;9.472;2023-05-21T02:15:09;1999.90;;;999.90;;
23594;SDS011;11975;47.674;9.472;2023-05-21T02:17:35;1999.90;;;999.90;;
23594;SDS011;11975;47.674;9.472;2023-05-21T02:20:03;1999.90;;;999.90;;
23594;SDS011;11975;47.674;9.472;2023-05-21T02:22:39;1999.90;;;999.90;;
23594;SDS011;11975;47.674;9.472;2023-05-21T02:25:09;1999.90;;;999.90;;
23594;SDS011;11975;47.674;9.472;2023-05-21T02:30:02;1999.90;;;999.90;;
23594;SDS011;11975;47.674;9.472;2023-05-21T02:34:59;1999.90;;;999.90;;
23594;SDS011;11975;47.674;9.472;2023-05-21T02:37:26;1999.90;;;999.90;;
23594;SDS011;11975;47.674;9.472;2023-05-21T02:39:52;1999.90;;;999.90;;
23594;SDS011;11975;47.674;9.472;2023-05-21T02:42:20;1999.90;;;999.90;;
23594;SDS011;11975;47.674;9.472;2023-05-21T02:47:12;1999.90;;;999.90;;
23594;SDS011;11975;47.674;9.472;2023-05-21T02:49:38;1999.90;;;999.90;;
23594;SDS011;11975;47.674;9.472;2023-05-21T02:52:04;1999.90;;;999.90;;
23594;SDS011;11975;47.674;9.472;2023-05-21T02:54:30;1999.90;;;999.90;;
23594;SDS011;11975;47.674;9.472;2023-05-21T02:56:56;1999.90;;;999.90;;
23594;SDS011;11975;47.674;9.472;2023-05-21T02:59:22;1999.90;;;999.90;;
23594;SDS011;11975;47.674;9.472;2023-05-21T03:01:48;1999.90;;;999.90;;
23594;SDS011;11975;47.674;9.472;2023-05-21T03:04:14;1999.90;;;999.90;;
23594;SDS011;11975;47.674;9.472;2023-05-21T03:06:41;1999.90;;;999.90;;
23594;SDS011;11975;47.674;9.472;2023-05-21T03:11:35;1999.90;;;999.90;;
23594;SDS011;11975;47.674;9.472;2023-05-21T03:14:01;1999.90;;;999.90;;
23594;SDS011;11975;47.674;9.472;2023-05-21T03:16:27;1999.90;;;999.90;;
23594;SDS011;11975;47.674;9.472;2023-05-21T03:18:53;1999.90;;;999.90;;
23594;SDS011;11975;47.674;9.472;2023-05-21T03:21:19;1999.90;;;999.90;;
23594;SDS011;11975;47.674;9.472;2023-05-21T03:23:47;1999.90;;;999.90;;
23594;SDS011;11975;47.674;9.472;2023-05-21T03:26:13;1999.90;;;999.90;;
23594;SDS011;11975;47.674;9.472;2023-05-21T03:28:39;1999.90;;;999.90;;
23594;SDS011;11975;47.674;9.472;2023-05-21T03:31:06;1999.90;;;999.90;;
23594;SDS011;11975;47.674;9.472;2023-05-21T03:33:32;1999.90;;;999.90;;
23594;SDS011;11975;47.674;9.472;2023-05-21T03:35:58;1999.90;;;999.90;;
23594;SDS011;11975;47.674;9.472;2023-05-21T03:38:24;1999.90;;;999.90;;
23594;SDS011;11975;47.674;9.472;2023-05-21T03:40:49;1999.90;;;999.90;;
23594;SDS011;11975;47.674;9.472;2023-05-21T03:43:15;1999.90;;;999.90;;
23594;SDS011;11975;47.674;9.472;2023-05-21T03:45:41;1999.90;;;999.90;;
23594;SDS011;11975;47.674;9.472;2023-05-21T03:48:07;1999.90;;;999.90;;
23594;SDS011;11975;47.674;9.472;2023-05-21T03:50:33;1999.90;;;999.90;;
23594;SDS011;11975;47.674;9.472;2023-05-21T03:52:59;1999.90;;;999.90;;
23594;SDS011;11975;47.674;9.472;2023-05-21T03:55:26;1999.90;;;999.90;;
23594;SDS011;11975;47.674;9.472;2023-05-21T03:57:52;1999.90;;;999.90;;
23594;SDS011;11975;47.674;9.472;2023-05-21T04:00:18;1999.90;;;999.90;;
23594;SDS011;11975;47.674;9.472;2023-05-21T04:02:44;1999.90;;;999.90;;
23594;SDS011;11975;47.674;9.472;2023-05-21T04:05:10;1999.90;;;999.90;;
23594;SDS011;11975;47.674;9.472;2023-05-21T04:07:36;1999.90;;;999.90;;
23594;SDS011;11975;47.674;9.472;2023-05-21T04:10:02;1999.90;;;999.90;;
23594;SDS011;11975;47.674;9.472;2023-05-21T04:12:29;1999.90;;;999.90;;
23594;SDS011;11975;47.674;9.472;2023-05-21T04:14:55;1999.90;;;999.90;;
23594;SDS011;11975;47.674;9.472;2023-05-21T04:17:21;1999.90;;;999.90;;
23594;SDS011;11975;47.674;9.472;2023-05-21T04:19:46;1999.90;;;999.90;;
23594;SDS011;11975;47.674;9.472;2023-05-21T04:22:12;1999.90;;;999.90;;
23594;SDS011;11975;47.674;9.472;2023-05-21T04:24:38;1999.90;;;999.90;;
23594;SDS011;11975;47.674;9.472;2023-05-21T04:27:04;1999.90;;;999.90;;
23594;SDS011;11975;47.674;9.472;2023-05-21T04:29:31;1999.90;;;999.90;;
23594;SDS011;11975;47.674;9.472;2023-05-21T04:31:57;1999.90;;;999.90;;
23594;SDS011;11975;47.674;9.472;2023-05-21T04:34:23;1999.90;;;999.90;;
23594;SDS011;11975;47.674;9.472;2023-05-21T04:36:49;1999.90;;;999.90;;
23594;SDS011;11975;47.674;9.472;2023-05-21T04:39:17;1999.90;;;999.90;;
23594;SDS011;11975;47.674;9.472;2023-05-21T04:41:42;1999.90;;;999.90;;
23594;SDS011;11975;47.674;9.472;2023-05-21T04:44:09;1999.90;;;999.90;;
23594;SDS011;11975;47.674;9.472;2023-05-21T04:46:39;1999.90;;;999.90;;
23594;SDS011;11975;47.674;9.472;2023-05-21T04:49:05;1999.90;;;999.90;;
23594;SDS011;11975;47.674;9.472;2023-05-21T04:51:31;1999.90;;;999.90;;
23594;SDS011;11975;47.674;9.472;2023-05-21T04:53:57;1999.90;;;999.90;;
23594;SDS011;11975;47.674;9.472;2023-05-21T04:56:23;1999.90;;;999.90;;
23594;SDS011;11975;47.674;9.472;2023-05-21T04:58:52;1999.90;;;999.90;;
23594;SDS011;11975;47.674;9.472;2023-05-21T05:01:19;1999.90;;;999.90;;
23594;SDS011;11975;47.674;9.472;2023-05-21T05:03:47;1999.90;;;999.90;;
23594;SDS011;11975;47.674;9.472;2023-05-21T05:06:14;1999.90;;;999.90;;
23594;SDS011;11975;47.674;9.472;2023-05-21T05:08:41;1999.90;;;999.90;;
23594;SDS011;11975;47.674;9.472;2023-05-21T05:11:07;1999.90;;;999.90;;
23594;SDS011;11975;47.674;9.472;2023-05-21T05:13:33;1999.90;;;999.90;;
23594;SDS011;11975;47.674;9.472;2023-05-21T05:15:59;1014.58;;;513.72;;
23594;SDS011;11975;47.674;9.472;2023-05-21T05:18:26;1999.90;;;999.90;;
23594;SDS011;11975;47.674;9.472;2023-05-21T05:20:51;1999.90;;;999.90;;
23594;SDS011;11975;47.674;9.472;2023-05-21T05:23:17;1999.90;;;999.90;;
23594;SDS011;11975;47.674;9.472;2023-05-21T05:25:43;28.33;;;26.73;;
23594;SDS011;11975;47.674;9.472;2023-05-21T05:28:09;28.45;;;26.75;;
23594;SDS011;11975;47.674;9.472;2023-05-21T05:30:35;27.27;;;25.67;;
23594;SDS011;11975;47.674;9.472;2023-05-21T05:33:01;28.20;;;26.40;;
23594;SDS011;11975;47.674;9.472;2023-05-21T05:35:27;27.42;;;25.83;;
23594;SDS011;11975;47.674;9.472;2023-05-21T05:37:53;27.85;;;26.25;;
23594;SDS011;11975;47.674;9.472;2023-05-21T05:40:19;27.40;;;25.80;;
23594;SDS011;11975;47.674;9.472;2023-05-21T05:42:45;28.13;;;26.52;;
23594;SDS011;11975;47.674;9.472;2023-05-21T05:45:13;29.23;;;27.33;;
23594;SDS011;11975;47.674;9.472;2023-05-21T05:47:39;27.85;;;26.25;;
23594;SDS011;11975;47.674;9.472;2023-05-21T05:50:06;28.57;;;26.87;;
23594;SDS011;11975;47.674;9.472;2023-05-21T05:52:32;26.25;;;24.65;;
23594;SDS011;11975;47.674;9.472;2023-05-21T05:54:58;25.65;;;23.95;;
23594;SDS011;11975;47.674;9.472;2023-05-21T05:57:24;25.08;;;23.58;;
23594;SDS011;11975;47.674;9.472;2023-05-21T05:59:50;24.27;;;22.65;;
23594;SDS011;11975;47.674;9.472;2023-05-21T06:02:16;23.77;;;22.38;;
23594;SDS011;11975;47.674;9.472;2023-05-21T06:04:42;24.35;;;22.85;;
23594;SDS011;11975;47.674;9.472;2023-05-21T06:07:08;22.67;;;21.38;;
23594;SDS011;11975;47.674;9.472;2023-05-21T06:09:34;22.48;;;21.17;;
23594;SDS011;11975;47.674;9.472;2023-05-21T06:12:00;21.88;;;20.60;;
23594;SDS011;11975;47.674;9.472;2023-05-21T06:14:26;22.20;;;20.90;;
23594;SDS011;11975;47.674;9.472;2023-05-21T06:16:52;20.77;;;19.58;;
23594;SDS011;11975;47.674;9.472;2023-05-21T06:19:18;21.67;;;20.48;;
23594;SDS011;11975;47.674;9.472;2023-05-21T06:21:44;20.48;;;19.38;;
23594;SDS011;11975;47.674;9.472;2023-05-21T06:24:10;20.67;;;19.48;;
23594;SDS011;11975;47.674;9.472;2023-05-21T06:26:36;20.50;;;19.30;;
23594;SDS011;11975;47.674;9.472;2023-05-21T06:29:02;20.77;;;19.58;;
23594;SDS011;11975;47.674;9.472;2023-05-21T06:31:28;20.55;;;19.35;;
23594;SDS011;11975;47.674;9.472;2023-05-21T06:33:57;21.30;;;20.00;;
23594;SDS011;11975;47.674;9.472;2023-05-21T06:36:25;20.92;;;19.60;;
23594;SDS011;11975;47.674;9.472;2023-05-21T06:38:54;21.45;;;20.15;;
23594;SDS011;11975;47.674;9.472;2023-05-21T06:41:21;20.75;;;19.55;;
23594;SDS011;11975;47.674;9.472;2023-05-21T06:43:47;19.98;;;18.77;;
23594;SDS011;11975;47.674;9.472;2023-05-21T06:46:13;20.48;;;19.27;;
23594;SDS011;11975;47.674;9.472;2023-05-21T06:48:39;20.73;;;19.52;;
23594;SDS011;11975;47.674;9.472;2023-05-21T06:51:05;20.33;;;19.08;;
23594;SDS011;11975;47.674;9.472;2023-05-21T06:53:31;20.42;;;19.20;;
23594;SDS011;11975;47.674;9.472;2023-05-21T06:55:57;20.50;;;19.30;;
23594;SDS011;11975;47.674;9.472;2023-05-21T06:58:23;20.13;;;18.97;;
23594;SDS011;11975;47.674;9.472;2023-05-21T07:00:50;20.05;;;18.85;;
23594;SDS011;11975;47.674;9.472;2023-05-21T07:03:16;20.23;;;19.02;;
23594;SDS011;11975;47.674;9.472;2023-05-21T07:05:42;20.20;;;19.00;;
23594;SDS011;11975;47.674;9.472;2023-05-21T07:08:08;20.48;;;19.27;;
23594;SDS011;11975;47.674;9.472;2023-05-21T07:10:34;19.67;;;18.58;;
23594;SDS011;11975;47.674;9.472;2023-05-21T07:13:01;20.40;;;19.20;;
23594;SDS011;11975;47.674;9.472;2023-05-21T07:16:06;20.23;;;19.00;;
23594;SDS011;11975;47.674;9.472;2023-05-21T07:18:32;20.90;;;19.70;;
23594;SDS011;11975;47.674;9.472;2023-05-21T07:20:58;20.30;;;19.13;;
23594;SDS011;11975;47.674;9.472;2023-05-21T07:23:24;20.10;;;18.92;;
23594;SDS011;11975;47.674;9.472;2023-05-21T07:25:51;19.23;;;18.13;;
23594;SDS011;11975;47.674;9.472;2023-05-21T07:28:17;20.42;;;19.23;;
23594;SDS011;11975;47.674;9.472;2023-05-21T07:30:43;20.30;;;19.10;;
23594;SDS011;11975;47.674;9.472;2023-05-21T07:33:09;21.02;;;19.40;;
23594;SDS011;11975;47.674;9.472;2023-05-21T07:35:37;19.92;;;18.73;;
23594;SDS011;11975;47.674;9.472;2023-05-21T07:38:03;19.83;;;18.73;;
23594;SDS011;11975;47.674;9.472;2023-05-21T07:40:29;19.53;;;18.43;;
23594;SDS011;11975;47.674;9.472;2023-05-21T07:42:55;19.65;;;18.45;;
23594;SDS011;11975;47.674;9.472;2023-05-21T07:45:21;20.17;;;18.98;;
23594;SDS011;11975;47.674;9.472;2023-05-21T07:47:47;19.58;;;18.40;;
23594;SDS011;11975;47.674;9.472;2023-05-21T07:50:13;20.25;;;18.98;;
23594;SDS011;11975;47.674;9.472;2023-05-21T07:52:39;18.77;;;17.67;;
23594;SDS011;11975;47.674;9.472;2023-05-21T07:55:05;19.00;;;17.90;;
23594;SDS011;11975;47.674;9.472;2023-05-21T07:57:31;18.60;;;17.60;;
23594;SDS011;11975;47.674;9.472;2023-05-21T07:59:57;19.60;;;18.37;;
23594;SDS011;11975;47.674;9.472;2023-05-21T08:02:23;19.17;;;18.07;;
23594;SDS011;11975;47.674;9.472;2023-05-21T08:04:50;19.08;;;17.98;;
23594;SDS011;11975;47.674;9.472;2023-05-21T08:09:44;19.25;;;18.15;;
23594;SDS011;11975;47.674;9.472;2023-05-21T08:12:10;18.37;;;17.37;;
23594;SDS011;11975;47.674;9.472;2023-05-21T08:14:43;18.77;;;17.67;;
23594;SDS011;11975;47.674;9.472;2023-05-21T08:17:09;17.75;;;16.75;;
23594;SDS011;11975;47.674;9.472;2023-05-21T08:19:38;18.63;;;17.55;;
23594;SDS011;11975;47.674;9.472;2023-05-21T08:22:04;18.23;;;17.23;;
23594;SDS011;11975;47.674;9.472;2023-05-21T08:24:33;18.02;;;17.02;;
23594;SDS011;11975;47.674;9.472;2023-05-21T08:26:59;18.13;;;17.02;;
23594;SDS011;11975;47.674;9.472;2023-05-21T08:29:25;18.20;;;17.20;;
23594;SDS011;11975;47.674;9.472;2023-05-21T08:31:51;22.43;;;17.57;;
23594;SDS011;11975;47.674;9.472;2023-05-21T08:34:17;18.40;;;17.30;;
23594;SDS011;11975;47.674;9.472;2023-05-21T08:36:43;18.40;;;17.30;;
23594;SDS011;11975;47.674;9.472;2023-05-21T08:39:10;18.40;;;17.38;;
23594;SDS011;11975;47.674;9.472;2023-05-21T08:44:03;18.15;;;17.13;;
23594;SDS011;11975;47.674;9.472;2023-05-21T08:46:32;17.60;;;16.60;;
23594;SDS011;11975;47.674;9.472;2023-05-21T08:49:00;17.73;;;16.65;;
23594;SDS011;11975;47.674;9.472;2023-05-21T08:51:27;17.80;;;16.80;;
23594;SDS011;11975;47.674;9.472;2023-05-21T08:53:53;17.83;;;16.83;;
23594;SDS011;11975;47.674;9.472;2023-05-21T08:56:20;18.17;;;17.17;;
23594;SDS011;11975;47.674;9.472;2023-05-21T08:58:46;17.23;;;16.13;;
23594;SDS011;11975;47.674;9.472;2023-05-21T09:01:13;17.83;;;16.83;;
23594;SDS011;11975;47.674;9.472;2023-05-21T09:03:39;17.87;;;16.87;;
23594;SDS011;11975;47.674;9.472;2023-05-21T09:08:34;17.98;;;16.98;;
23594;SDS011;11975;47.674;9.472;2023-05-21T09:11:03;17.70;;;16.70;;
23594;SDS011;11975;47.674;9.472;2023-05-21T09:13:30;18.00;;;17.00;;
23594;SDS011;11975;47.674;9.472;2023-05-21T09:15:59;17.50;;;16.50;;
23594;SDS011;11975;47.674;9.472;2023-05-21T09:18:25;18.33;;;16.95;;
23594;SDS011;11975;47.674;9.472;2023-05-21T09:20:52;18.63;;;17.52;;
23594;SDS011;11975;47.674;9.472;2023-05-21T09:23:18;17.88;;;16.88;;
23594;SDS011;11975;47.674;9.472;2023-05-21T09:25:45;17.30;;;16.17;;
23594;SDS011;11975;47.674;9.472;2023-05-21T09:28:12;17.70;;;16.70;;
23594;SDS011;11975;47.674;9.472;2023-05-21T09:30:45;17.48;;;16.48;;
23594;SDS011;11975;47.674;9.472;2023-05-21T09:33:16;18.55;;;17.45;;
23594;SDS011;11975;47.674;9.472;2023-05-21T09:35:49;17.90;;;16.90;;
23594;SDS011;11975;47.674;9.472;2023-05-21T09:38:15;19.27;;;18.17;;
23594;SDS011;11975;47.674;9.472;2023-05-21T09:40:44;18.00;;;17.00;;
23594;SDS011;11975;47.674;9.472;2023-05-21T09:43:13;18.73;;;17.63;;
23594;SDS011;11975;47.674;9.472;2023-05-21T09:45:49;18.08;;;17.08;;
23594;SDS011;11975;47.674;9.472;2023-05-21T09:48:34;18.23;;;17.23;;
23594;SDS011;11975;47.674;9.472;2023-05-21T09:53:49;18.65;;;17.60;;
23594;SDS011;11975;47.674;9.472;2023-05-21T09:56:20;18.95;;;17.85;;
23594;SDS011;11975;47.674;9.472;2023-05-21T09:58:47;19.85;;;18.73;;
23594;SDS011;11975;47.674;9.472;2023-05-21T10:01:17;19.00;;;17.90;;
23594;SDS011;11975;47.674;9.472;2023-05-21T10:03:44;18.90;;;17.52;;
23594;SDS011;11975;47.674;9.472;2023-05-21T10:06:12;18.38;;;17.38;;
23594;SDS011;11975;47.674;9.472;2023-05-21T10:08:40;18.23;;;17.23;;
23594;SDS011;11975;47.674;9.472;2023-05-21T10:11:08;19.17;;;18.08;;
23594;SDS011;11975;47.674;9.472;2023-05-21T10:13:36;18.73;;;17.63;;
23594;SDS011;11975;47.674;9.472;2023-05-21T10:16:04;18.70;;;17.55;;
23594;SDS011;11975;47.674;9.472;2023-05-21T10:18:30;17.80;;;16.80;;
23594;SDS011;11975;47.674;9.472;2023-05-21T10:20:56;18.65;;;17.50;;
23594;SDS011;11975;47.674;9.472;2023-05-21T10:23:23;18.02;;;17.02;;
23594;SDS011;11975;47.674;9.472;2023-05-21T10:25:50;18.40;;;17.30;;
23594;SDS011;11975;47.674;9.472;2023-05-21T10:28:17;18.60;;;17.60;;
23594;SDS011;11975;47.674;9.472;2023-05-21T10:30:44;19.08;;;17.98;;
23594;SDS011;11975;47.674;9.472;2023-05-21T10:33:12;18.35;;;17.35;;
23594;SDS011;11975;47.674;9.472;2023-05-21T10:35:40;18.23;;;17.23;;
23594;SDS011;11975;47.674;9.472;2023-05-21T10:38:07;17.95;;;16.95;;
23594;SDS011;11975;47.674;9.472;2023-05-21T10:48:47;18.55;;;17.52;;
23594;SDS011;11975;47.674;9.472;2023-05-21T10:59:58;18.20;;;17.20;;
23594;SDS011;11975;47.674;9.472;2023-05-21T11:02:25;17.60;;;16.60;;
23594;SDS011;11975;47.674;9.472;2023-05-21T11:04:58;18.23;;;17.23;;
23594;SDS011;11975;47.674;9.472;2023-05-21T11:13:15;17.42;;;16.42;;
23594;SDS011;11975;47.674;9.472;2023-05-21T11:21:08;18.75;;;17.67;;
23594;SDS011;11975;47.674;9.472;2023-05-21T11:23:55;17.90;;;16.90;;
23594;SDS011;11975;47.674;9.472;2023-05-21T11:26:24;19.90;;;18.60;;
23594;SDS011;11975;47.674;9.472;2023-05-21T11:31:29;18.05;;;17.05;;
23594;SDS011;11975;47.674;9.472;2023-05-21T11:34:22;19.42;;;17.77;;
23594;SDS011;11975;47.674;9.472;2023-05-21T11:39:49;17.10;;;16.13;;
23594;SDS011;11975;47.674;9.472;2023-05-21T11:42:29;16.88;;;15.98;;
23594;SDS011;11975;47.674;9.472;2023-05-21T11:45:00;17.27;;;16.23;;
23594;SDS011;11975;47.674;9.472;2023-05-21T11:47:27;17.67;;;16.67;;
23594;SDS011;11975;47.674;9.472;2023-05-21T11:49:54;17.20;;;16.20;;
23594;SDS011;11975;47.674;9.472;2023-05-21T11:52:21;16.65;;;15.75;;
23594;SDS011;11975;47.674;9.472;2023-05-21T11:54:49;17.27;;;16.27;;
23594;SDS011;11975;47.674;9.472;2023-05-21T11:57:18;16.88;;;15.98;;
23594;SDS011;11975;47.674;9.472;2023-05-21T11:59:44;16.73;;;15.83;;
23594;SDS011;11975;47.674;9.472;2023-05-21T12:02:15;17.42;;;16.33;;
23594;SDS011;11975;47.674;9.472;2023-05-21T12:04:42;16.95;;;16.05;;
23594;SDS011;11975;47.674;9.472;2023-05-21T12:09:41;17.25;;;16.25;;
23594;SDS011;11975;47.674;9.472;2023-05-21T12:12:08;16.45;;;15.55;;
23594;SDS011;11975;47.674;9.472;2023-05-21T12:14:35;16.98;;;16.08;;
23594;SDS011;11975;47.674;9.472;2023-05-21T12:17:04;16.95;;;16.05;;
23594;SDS011;11975;47.674;9.472;2023-05-21T12:19:37;16.70;;;15.80;;
23594;SDS011;11975;47.674;9.472;2023-05-21T12:22:04;17.00;;;16.08;;
23594;SDS011;11975;47.674;9.472;2023-05-21T12:26:57;16.83;;;15.93;;
23594;SDS011;11975;47.674;9.472;2023-05-21T12:29:26;16.95;;;16.05;;
23594;SDS011;11975;47.674;9.472;2023-05-21T12:34:37;16.42;;;15.52;;
23594;SDS011;11975;47.674;9.472;2023-05-21T12:37:19;17.10;;;16.10;;
23594;SDS011;11975;47.674;9.472;2023-05-21T12:40:00;16.55;;;15.65;;
23594;SDS011;11975;47.674;9.472;2023-05-21T12:42:32;17.20;;;16.10;;
23594;SDS011;11975;47.674;9.472;2023-05-21T12:45:07;16.83;;;15.93;;
23594;SDS011;11975;47.674;9.472;2023-05-21T12:47:34;16.52;;;15.63;;
23594;SDS011;11975;47.674;9.472;2023-05-21T12:50:01;16.58;;;15.68;;
23594;SDS011;11975;47.674;9.472;2023-05-21T12:52:38;17.27;;;16.27;;
23594;SDS011;11975;47.674;9.472;2023-05-21T12:55:05;17.40;;;16.40;;
23594;SDS011;11975;47.674;9.472;2023-05-21T12:57:35;16.75;;;15.85;;
23594;SDS011;11975;47.674;9.472;2023-05-21T13:00:03;17.80;;;16.80;;
23594;SDS011;11975;47.674;9.472;2023-05-21T13:02:37;16.75;;;15.85;;
23594;SDS011;11975;47.674;9.472;2023-05-21T13:05:05;16.50;;;15.60;;
23594;SDS011;11975;47.674;9.472;2023-05-21T13:07:32;17.35;;;16.35;;
23594;SDS011;11975;47.674;9.472;2023-05-21T13:10:00;17.80;;;16.80;;
23594;SDS011;11975;47.674;9.472;2023-05-21T13:12:30;17.30;;;16.38;;
23594;SDS011;11975;47.674;9.472;2023-05-21T13:14:57;17.90;;;16.90;;
23594;SDS011;11975;47.674;9.472;2023-05-21T13:17:25;16.70;;;15.80;;
23594;SDS011;11975;47.674;9.472;2023-05-21T13:22:34;17.80;;;16.80;;
23594;SDS011;11975;47.674;9.472;2023-05-21T13:25:04;17.55;;;16.55;;
23594;SDS011;11975;47.674;9.472;2023-05-21T13:27:30;17.70;;;16.70;;
23594;SDS011;11975;47.674;9.472;2023-05-21T13:29:56;17.73;;;16.73;;
23594;SDS011;11975;47.674;9.472;2023-05-21T13:32:22;17.55;;;16.55;;
23594;SDS011;11975;47.674;9.472;2023-05-21T13:34:48;18.63;;;17.23;;
23594;SDS011;11975;47.674;9.472;2023-05-21T13:37:14;18.27;;;17.27;;
23594;SDS011;11975;47.674;9.472;2023-05-21T13:39:40;19.20;;;18.10;;
23594;SDS011;11975;47.674;9.472;2023-05-21T13:42:06;17.40;;;16.40;;
23594;SDS011;11975;47.674;9.472;2023-05-21T13:44:32;17.30;;;16.30;;
23594;SDS011;11975;47.674;9.472;2023-05-21T13:47:04;17.90;;;16.77;;
23594;SDS011;11975;47.674;9.472;2023-05-21T13:49:31;18.80;;;17.70;;
23594;SDS011;11975;47.674;9.472;2023-05-21T13:51:58;19.17;;;17.38;;
23594;SDS011;11975;47.674;9.472;2023-05-21T13:54:25;17.88;;;16.77;;
23594;SDS011;11975;47.674;9.472;2023-05-21T13:56:52;18.75;;;17.65;;
23594;SDS011;11975;47.674;9.472;2023-05-21T13:59:18;17.67;;;16.67;;
23594;SDS011;11975;47.674;9.472;2023-05-21T14:01:44;18.23;;;17.23;;
23594;SDS011;11975;47.674;9.472;2023-05-21T14:04:13;18.40;;;17.37;;
23594;SDS011;11975;47.674;9.472;2023-05-21T14:06:39;17.50;;;16.50;;
23594;SDS011;11975;47.674;9.472;2023-05-21T14:09:05;17.48;;;16.48;;
23594;SDS011;11975;47.674;9.472;2023-05-21T14:11:31;18.23;;;17.05;;
23594;SDS011;11975;47.674;9.472;2023-05-21T14:13:58;18.08;;;17.08;;
23594;SDS011;11975;47.674;9.472;2023-05-21T14:16:24;17.90;;;16.90;;
23594;SDS011;11975;47.674;9.472;2023-05-21T14:18:52;18.55;;;17.45;;
23594;SDS011;11975;47.674;9.472;2023-05-21T14:21:19;17.63;;;16.63;;
23594;SDS011;11975;47.674;9.472;2023-05-21T14:23:45;17.58;;;16.58;;
23594;SDS011;11975;47.674;9.472;2023-05-21T14:26:12;17.50;;;16.50;;
23594;SDS011;11975;47.674;9.472;2023-05-21T14:28:38;17.48;;;16.48;;
23594;SDS011;11975;47.674;9.472;2023-05-21T14:31:04;17.60;;;16.60;;
23594;SDS011;11975;47.674;9.472;2023-05-21T14:33:31;18.20;;;17.02;;
23594;SDS011;11975;47.674;9.472;2023-05-21T14:35:58;17.33;;;16.33;;
23594;SDS011;11975;47.674;9.472;2023-05-21T14:38:24;16.90;;;16.00;;
23594;SDS011;11975;47.674;9.472;2023-05-21T14:40:50;16.67;;;15.77;;
23594;SDS011;11975;47.674;9.472;2023-05-21T14:43:16;16.73;;;15.83;;
23594;SDS011;11975;47.674;9.472;2023-05-21T14:45:42;17.77;;;16.67;;
23594;SDS011;11975;47.674;9.472;2023-05-21T14:48:09;16.23;;;15.33;;
23594;SDS011;11975;47.674;9.472;2023-05-21T14:50:36;17.50;;;16.50;;
23594;SDS011;11975;47.674;9.472;2023-05-21T14:55:32;17.00;;;16.00;;
23594;SDS011;11975;47.674;9.472;2023-05-21T14:57:59;18.02;;;16.80;;
23594;SDS011;11975;47.674;9.472;2023-05-21T15:00:25;16.95;;;16.05;;
23594;SDS011;11975;47.674;9.472;2023-05-21T15:02:52;15.88;;;14.93;;
23594;SDS011;11975;47.674;9.472;2023-05-21T15:05:18;16.40;;;15.50;;
23594;SDS011;11975;47.674;9.472;2023-05-21T15:07:44;16.85;;;15.95;;
23594;SDS011;11975;47.674;9.472;2023-05-21T15:10:10;16.67;;;15.77;;
23594;SDS011;11975;47.674;9.472;2023-05-21T15:12:37;17.00;;;16.07;;
23594;SDS011;11975;47.674;9.472;2023-05-21T15:15:04;17.33;;;16.33;;
23594;SDS011;11975;47.674;9.472;2023-05-21T15:17:31;17.25;;;16.25;;
23594;SDS011;11975;47.674;9.472;2023-05-21T15:19:58;16.48;;;15.57;;
23594;SDS011;11975;47.674;9.472;2023-05-21T15:22:26;16.77;;;15.88;;